Time;durP1;ratioP1;P1;durP2;ratioP2;P2;SDS_P1;SDS_P2;PMS_P1;PMS_P2;Temp;Humidity;BMP_temperature;BMP_pressure;BME280_temperature;BME280_humidity;BME280_pressure;Samples;Min_cycle;Max_cycle;Signal;HPM_P1;HPM_P2
2022/08/19 12:47:47;;;;;;;108.43;16.13;;;24.10;99.90;;;;;;5039836;28;21101;-78
2022/08/19 12:50:32;;;;;;;65.78;11.05;;;24.10;99.90;;;;;;5029157;28;20417;-79
2022/08/19 12:53:16;;;;;;;6.47;3.38;;;24.30;99.90;;;;;;5025822;28;20416;-80
2022/08/19 12:56:00;;;;;;;13.02;3.97;;;24.40;99.90;;;;;;5038350;28;20437;-79
2022/08/19 12:58:45;;;;;;;9.60;3.58;;;24.50;99.90;;;;;;5037351;28;20470;-80
2022/08/19 13:01:32;;;;;;;18.95;4.53;;;24.70;99.90;;;;;;5038592;28;20479;-78
2022/08/19 13:04:16;;;;;;;9.83;3.00;;;24.70;99.90;;;;;;5039616;28;20417;-82
2022/08/19 13:07:00;;;;;;;4.32;2.58;;;24.80;99.90;;;;;;5035777;28;20441;-78
2022/08/19 13:09:44;;;;;;;5.18;2.85;;;24.90;99.90;;;;;;5038566;28;20419;-79
2022/08/19 13:12:29;;;;;;;4.10;2.40;;;24.90;99.90;;;;;;5035323;28;20501;-78
2022/08/19 13:15:14;;;;;;;2.95;2.40;;;25.00;99.90;;;;;;5039995;28;20436;-81
2022/08/19 13:17:59;;;;;;;5.43;2.78;;;25.00;99.90;;;;;;5037518;28;20408;-79
2022/08/19 13:20:43;;;;;;;3.67;2.80;;;25.10;99.90;;;;;;5038775;28;20405;-80
2022/08/19 13:23:27;;;;;;;4.07;2.50;;;25.30;99.90;;;;;;5036534;28;20417;-81
2022/08/19 13:26:12;;;;;;;3.38;2.50;;;25.20;99.90;;;;;;5039000;28;20469;-82
2022/08/19 13:35:04;;;;;;;3.57;2.50;;;25.30;99.90;;;;;;5038497;28;20445;-79
2022/08/19 13:37:48;;;;;;;4.47;2.40;;;25.30;99.90;;;;;;5034831;28;20409;-77
2022/08/19 13:40:33;;;;;;;10.48;2.90;;;25.20;99.90;;;;;;5036571;28;20505;-80
2022/08/19 13:43:20;;;;;;;3.28;2.33;;;25.30;99.90;;;;;;5038046;28;20464;-80
2022/08/19 13:46:09;;;;;;;4.82;2.20;;;25.30;99.90;;;;;;5035867;28;20518;-81
2022/08/19 13:48:53;;;;;;;3.25;2.22;;;25.30;99.90;;;;;;5046129;28;20414;-81
2022/08/19 13:51:39;;;;;;;3.00;2.58;;;25.50;99.90;;;;;;5038553;28;20787;-79
2022/08/19 13:54:24;;;;;;;4.20;2.45;;;25.60;99.90;;;;;;5035265;28;20425;-80
2022/08/19 13:57:08;;;;;;;4.35;2.40;;;25.60;99.90;;;;;;5035791;28;20421;-79
2022/08/19 13:59:52;;;;;;;2.40;2.15;;;25.60;99.90;;;;;;5021230;28;20525;-80
2022/08/19 14:02:38;;;;;;;4.20;2.33;;;25.70;99.90;;;;;;5029940;28;20422;-80
2022/08/19 14:05:25;;;;;;;12.00;2.47;;;25.70;99.90;;;;;;5025571;28;20410;-80
2022/08/19 14:08:09;;;;;;;3.28;2.20;;;25.80;99.90;;;;;;5024436;28;20421;-84
2022/08/19 14:10:54;;;;;;;3.17;2.10;;;26.00;99.90;;;;;;5025399;28;20423;-80
2022/08/19 14:13:38;;;;;;;3.15;1.90;;;26.00;99.90;;;;;;5024012;28;20422;-81
2022/08/19 14:16:22;;;;;;;2.47;2.00;;;26.00;99.90;;;;;;5022621;28;20434;-83
2022/08/19 14:19:07;;;;;;;3.65;2.08;;;26.00;99.90;;;;;;5025549;28;20467;-79
2022/08/19 14:21:51;;;;;;;17.38;2.80;;;26.10;99.90;;;;;;5022753;28;20410;-79
2022/08/19 14:24:39;;;;;;;3.97;2.10;;;26.10;99.90;;;;;;5025646;28;20473;-79
2022/08/19 14:27:24;;;;;;;2.70;2.10;;;26.10;99.90;;;;;;5023333;28;20421;-80
2022/08/19 14:30:12;;;;;;;2.20;1.90;;;26.20;99.90;;;;;;5020474;28;20468;-78
2022/08/19 14:32:58;;;;;;;3.67;2.10;;;26.20;99.90;;;;;;5022598;28;20490;-81
2022/08/19 14:35:44;;;;;;;5.00;2.20;;;26.20;99.90;;;;;;5026299;28;20470;-80
2022/08/19 14:38:31;;;;;;;3.22;1.90;;;26.20;99.90;;;;;;5023858;28;20438;-80
2022/08/19 14:41:19;;;;;;;2.50;1.85;;;26.20;99.90;;;;;;5023007;28;20402;-77
2022/08/19 14:44:03;;;;;;;4.75;2.05;;;26.30;99.90;;;;;;5023945;28;20413;-80
2022/08/19 14:46:47;;;;;;;2.00;1.70;;;26.30;99.90;;;;;;5023342;28;20469;-79
2022/08/19 14:49:31;;;;;;;2.53;1.73;;;26.50;99.90;;;;;;5026218;28;20405;-79
2022/08/19 14:52:15;;;;;;;4.68;3.10;;;26.50;99.90;;;;;;5026938;28;20421;-81
2022/08/19 14:55:00;;;;;;;2.53;2.17;;;26.50;99.90;;;;;;5024369;28;20500;-79
2022/08/19 14:57:45;;;;;;;3.85;2.00;;;26.60;99.90;;;;;;5022120;28;20476;-79
2022/08/19 15:00:29;;;;;;;2.78;2.00;;;26.60;99.90;;;;;;5020853;28;20426;-78
2022/08/19 15:03:13;;;;;;;3.53;1.83;;;26.50;99.90;;;;;;5021434;28;20473;-79
2022/08/19 15:05:58;;;;;;;3.07;2.00;;;26.50;99.90;;;;;;5018911;28;20941;-80
2022/08/19 15:08:44;;;;;;;2.90;2.08;;;26.50;99.90;;;;;;5021618;28;20565;-78
2022/08/19 15:11:29;;;;;;;3.42;2.15;;;26.50;99.90;;;;;;5023537;28;20421;-79
2022/08/19 15:14:15;;;;;;;3.40;2.03;;;26.60;99.90;;;;;;5021400;28;20496;-80
2022/08/19 15:16:59;;;;;;;4.10;2.20;;;26.60;99.90;;;;;;5018779;28;20565;-80
2022/08/19 15:19:43;;;;;;;2.83;2.00;;;26.70;99.90;;;;;;5016620;28;20871;-80
2022/08/19 15:22:27;;;;;;;2.47;1.90;;;26.70;99.90;;;;;;5028622;28;20429;-81
2022/08/19 15:25:14;;;;;;;2.20;1.90;;;26.70;99.90;;;;;;5027125;28;20504;-81
2022/08/19 15:28:00;;;;;;;2.72;1.80;;;26.70;99.90;;;;;;5036909;28;20830;-79
2022/08/19 15:30:44;;;;;;;2.45;2.10;;;26.70;99.90;;;;;;5025902;28;20410;-81
2022/08/19 15:33:32;;;;;;;2.70;1.90;;;26.70;99.90;;;;;;5023320;28;20425;-79
2022/08/19 15:36:16;;;;;;;4.75;2.00;;;26.80;99.90;;;;;;5024823;28;20450;-79
2022/08/19 15:39:00;;;;;;;3.45;2.03;;;26.90;99.90;;;;;;5026427;28;20445;-79
2022/08/19 15:41:46;;;;;;;3.50;1.90;;;26.90;99.90;;;;;;5029329;28;20405;-79
2022/08/19 15:44:30;;;;;;;2.60;1.83;;;26.90;99.90;;;;;;5026333;28;20512;-80
2022/08/19 15:47:14;;;;;;;3.20;1.90;;;26.90;99.90;;;;;;5025968;28;20581;-82
2022/08/19 15:49:59;;;;;;;4.20;1.90;;;26.80;99.90;;;;;;5025965;28;20446;-80
2022/08/19 15:52:53;;;;;;;3.60;2.13;;;26.80;99.90;;;;;;5025943;28;20481;-81
2022/08/19 15:55:44;;;;;;;3.13;1.90;;;26.80;99.90;;;;;;5025283;28;20426;-81
2022/08/19 16:07:38;;;;;;;4.05;2.20;;;26.80;99.90;;;;;;5024984;28;21012;-78
2022/08/19 16:10:22;;;;;;;3.25;2.17;;;26.70;99.90;;;;;;5026336;28;20445;-79
2022/08/19 16:13:06;;;;;;;2.30;2.10;;;26.70;99.90;;;;;;5024110;28;20492;-79
2022/08/19 16:15:52;;;;;;;2.35;2.13;;;26.60;99.90;;;;;;5026593;28;20430;-79
2022/08/19 16:18:37;;;;;;;2.20;2.00;;;26.60;99.90;;;;;;5025351;28;20464;-80
2022/08/19 16:21:22;;;;;;;3.70;2.42;;;26.60;99.90;;;;;;5024289;28;20422;-80
2022/08/19 16:24:09;;;;;;;2.50;2.03;;;26.50;99.90;;;;;;5024789;28;20418;-79
2022/08/19 16:26:54;;;;;;;3.25;2.30;;;26.50;99.90;;;;;;5025481;28;20417;-80
2022/08/19 16:29:38;;;;;;;3.47;2.10;;;26.50;99.90;;;;;;5024226;28;20426;-80
2022/08/19 16:32:22;;;;;;;2.35;1.85;;;26.40;99.90;;;;;;5025532;28;20430;-79
2022/08/19 16:35:07;;;;;;;3.53;1.87;;;26.50;99.90;;;;;;5023722;28;20451;-80
2022/08/19 16:37:52;;;;;;;2.97;2.40;;;26.40;99.90;;;;;;5028150;28;20429;-83
2022/08/19 16:40:36;;;;;;;4.43;3.15;;;26.40;99.90;;;;;;5024492;28;20406;-81
2022/08/19 16:43:21;;;;;;;5.00;3.40;;;26.40;99.90;;;;;;5022256;28;20510;-82
2022/08/19 16:46:05;;;;;;;4.78;3.10;;;26.30;99.90;;;;;;5019361;28;20528;-80
2022/08/19 16:48:50;;;;;;;6.10;2.45;;;26.30;99.90;;;;;;5017269;28;20449;-84
2022/08/19 16:51:35;;;;;;;2.72;2.10;;;26.30;99.90;;;;;;5019739;28;20463;-82
2022/08/19 16:54:20;;;;;;;3.25;2.40;;;26.30;99.90;;;;;;5018471;28;20454;-81
2022/08/19 16:57:07;;;;;;;2.47;2.25;;;26.30;99.90;;;;;;5021976;28;20425;-82
2022/08/19 16:59:51;;;;;;;4.63;2.13;;;26.20;99.90;;;;;;5019481;28;20421;-81
2022/08/19 17:02:39;;;;;;;2.80;1.90;;;26.10;99.90;;;;;;5023944;28;20422;-83
2022/08/19 17:05:24;;;;;;;2.13;1.83;;;26.00;99.90;;;;;;5023841;28;20461;-84
2022/08/19 17:08:13;;;;;;;4.18;2.20;;;25.90;99.90;;;;;;5023463;28;20429;-82
2022/08/19 17:10:58;;;;;;;3.33;1.80;;;26.00;99.90;;;;;;5022311;28;20553;-82
2022/08/19 17:13:43;;;;;;;4.00;2.00;;;26.00;99.90;;;;;;5023619;28;20414;-81
2022/08/19 17:16:34;;;;;;;2.47;1.67;;;26.00;99.90;;;;;;5022161;28;20534;-82
2022/08/19 17:19:24;;;;;;;3.33;1.90;;;26.10;99.90;;;;;;5020255;28;20426;-83
2022/08/19 17:22:11;;;;;;;4.93;1.98;;;26.00;99.90;;;;;;5024811;28;20512;-82
2022/08/19 17:24:57;;;;;;;8.20;2.00;;;26.00;99.90;;;;;;5022704;28;21024;-79
2022/08/19 17:27:42;;;;;;;2.90;1.90;;;26.00;99.90;;;;;;5023991;28;20473;-80
2022/08/19 17:30:31;;;;;;;3.88;2.05;;;26.00;99.90;;;;;;5029401;28;20794;-81
2022/08/19 17:33:18;;;;;;;9.23;2.67;;;26.00;99.90;;;;;;5026449;28;20446;-80
2022/08/19 17:36:05;;;;;;;5.95;2.33;;;26.00;99.90;;;;;;5032663;28;20446;-82
2022/08/19 17:38:54;;;;;;;4.32;2.30;;;25.90;99.90;;;;;;5030904;28;20434;-83
2022/08/19 17:41:39;;;;;;;16.60;3.00;;;25.90;99.90;;;;;;5028643;28;20410;-81
2022/08/19 17:44:24;;;;;;;14.07;3.47;;;25.80;99.90;;;;;;5036051;28;20786;-82
2022/08/19 17:47:09;;;;;;;11.77;2.70;;;25.80;99.90;;;;;;5041056;28;20468;-82
2022/08/19 17:49:53;;;;;;;5.38;2.60;;;25.70;99.90;;;;;;5034287;28;20437;-81
2022/08/19 17:52:38;;;;;;;3.58;2.20;;;25.60;99.90;;;;;;5036173;28;20417;-82
2022/08/19 17:55:23;;;;;;;3.87;2.43;;;25.70;99.90;;;;;;5036850;28;20412;-82
2022/08/19 17:58:08;;;;;;;2.40;2.20;;;25.60;99.90;;;;;;5037299;28;20416;-82
2022/08/19 18:00:54;;;;;;;2.70;2.50;;;25.60;99.90;;;;;;5033764;28;20833;-80
2022/08/19 18:03:47;;;;;;;3.13;2.50;;;25.60;99.90;;;;;;5025650;28;20456;-81
2022/08/19 18:06:40;;;;;;;3.17;2.40;;;25.60;99.90;;;;;;5030294;28;20898;-82
2022/08/19 18:09:30;;;;;;;3.58;2.47;;;25.60;99.90;;;;;;5030323;28;20525;-81
2022/08/19 18:12:23;;;;;;;5.07;2.47;;;25.60;99.90;;;;;;5026711;28;20942;-81
2022/08/19 18:15:12;;;;;;;3.72;2.50;;;25.60;99.90;;;;;;5024169;28;20426;-83
2022/08/19 18:18:01;;;;;;;4.10;2.40;;;25.50;99.90;;;;;;5027039;28;20483;-82
2022/08/19 18:20:55;;;;;;;3.05;2.40;;;25.50;99.90;;;;;;5037035;28;20426;-82
2022/08/19 18:24:03;;;;;;;2.78;2.58;;;25.50;99.90;;;;;;5033794;28;20556;-82
2022/08/19 18:26:50;;;;;;;3.25;2.47;;;25.40;99.90;;;;;;5031114;28;20430;-82
2022/08/19 18:29:59;;;;;;;4.63;2.97;;;25.40;99.90;;;;;;5039331;28;20414;-82
2022/08/19 18:32:58;;;;;;;3.33;2.90;;;25.40;99.90;;;;;;5027832;28;20414;-81
2022/08/19 18:36:04;;;;;;;3.90;2.80;;;25.40;99.90;;;;;;5042980;28;20440;-81
2022/08/19 18:49:08;;;;;;;5.43;3.72;;;25.30;99.90;;;;;;5032974;28;20461;-82
2022/08/19 18:52:19;;;;;;;5.67;3.80;;;25.20;99.90;;;;;;5035418;28;20421;-82
2022/08/19 18:55:16;;;;;;;6.68;4.80;;;25.20;99.90;;;;;;5033114;28;20429;-81
2022/08/19 18:58:34;;;;;;;5.77;5.17;;;25.10;99.90;;;;;;5035394;28;20441;-82
2022/08/19 19:01:33;;;;;;;6.97;5.10;;;25.10;99.90;;;;;;5037900;28;20449;-80
2022/08/19 19:04:29;;;;;;;7.43;5.00;;;25.00;99.90;;;;;;5050282;28;20406;-81
2022/08/19 19:07:22;;;;;;;7.38;3.75;;;25.00;99.90;;;;;;5045295;28;20403;-82
2022/08/19 19:10:07;;;;;;;8.05;3.20;;;24.90;99.90;;;;;;5036842;28;20430;-81
2022/08/19 19:12:54;;;;;;;6.22;2.80;;;24.80;99.90;;;;;;5038347;28;20489;-82
2022/08/19 19:15:42;;;;;;;3.90;3.30;;;24.70;99.90;;;;;;5038817;28;20422;-80
2022/08/19 19:18:36;;;;;;;4.70;3.60;;;24.60;99.90;;;;;;5031971;28;20981;-79
2022/08/19 19:21:23;;;;;;;5.68;4.03;;;24.50;99.90;;;;;;5032114;28;20446;-77
2022/08/19 19:24:07;;;;;;;7.30;4.00;;;24.40;99.90;;;;;;5023604;28;20415;-78
2022/08/19 19:26:53;;;;;;;4.65;4.25;;;24.40;99.90;;;;;;5032538;28;20910;-80
2022/08/19 19:29:37;;;;;;;5.53;4.50;;;24.30;99.90;;;;;;5027823;28;20482;-79
2022/08/19 19:32:31;;;;;;;5.47;4.50;;;24.20;99.90;;;;;;5036619;28;20430;-79
2022/08/19 19:35:17;;;;;;;8.85;5.10;;;24.20;99.90;;;;;;5011846;28;20431;-79
2022/08/19 19:38:02;;;;;;;6.55;5.10;;;24.10;99.90;;;;;;5020108;28;20433;-80
2022/08/19 19:40:52;;;;;;;5.57;5.03;;;24.10;99.90;;;;;;5019007;28;20542;-81
2022/08/19 19:43:37;;;;;;;7.78;5.55;;;24.10;99.90;;;;;;5017442;28;20499;-79
2022/08/19 19:46:25;;;;;;;6.93;5.70;;;24.00;99.90;;;;;;5021225;28;20422;-79
2022/08/19 19:49:11;;;;;;;7.28;5.78;;;24.00;99.90;;;;;;5029853;28;20450;-80
2022/08/19 19:51:56;;;;;;;8.82;6.63;;;23.90;99.90;;;;;;5023797;28;20414;-79
2022/08/19 19:54:40;;;;;;;10.48;6.80;;;23.80;99.90;;;;;;5038865;28;20429;-80
2022/08/19 19:57:30;;;;;;;7.68;6.80;;;23.70;99.90;;;;;;5022724;28;20480;-79
2022/08/19 20:00:17;;;;;;;9.02;6.90;;;23.70;99.90;;;;;;5020837;28;20517;-80
2022/08/19 20:03:05;;;;;;;8.93;7.30;;;23.60;99.90;;;;;;5022920;28;20418;-80
2022/08/19 20:05:51;;;;;;;9.77;7.10;;;23.50;99.90;;;;;;5024605;28;20422;-80
2022/08/19 20:11:44;;;;;;;8.00;7.20;;;23.50;99.90;;;;;;5025301;28;20535;-80
2022/08/19 20:14:31;;;;;;;10.57;8.57;;;23.40;99.90;;;;;;5024507;28;20499;-80
2022/08/19 20:17:19;;;;;;;11.73;9.80;;;23.40;99.90;;;;;;5022856;28;20438;-81
2022/08/19 20:20:16;;;;;;;9.80;8.80;;;23.40;99.90;;;;;;5016069;28;20918;-80
2022/08/19 20:23:01;;;;;;;9.40;8.50;;;23.30;99.90;;;;;;5018562;28;20413;-80
2022/08/19 20:25:51;;;;;;;10.15;8.55;;;23.30;99.90;;;;;;5017906;28;20433;-80
2022/08/19 20:28:36;;;;;;;10.23;9.23;;;23.20;99.90;;;;;;5019262;28;20423;-81
2022/08/19 20:31:26;;;;;;;11.15;10.05;;;23.10;99.90;;;;;;5018377;28;20448;-79
2022/08/19 20:34:12;;;;;;;11.75;10.55;;;23.10;99.90;;;;;;5024192;28;20482;-80
2022/08/19 20:37:07;;;;;;;12.57;10.80;;;23.10;99.90;;;;;;5023754;28;20937;-81
2022/08/19 20:39:53;;;;;;;;;;;23.00;99.90;;;;;;5027636;28;20400;-82
2022/08/19 20:42:42;;;;;;;11.02;9.93;;;22.90;99.90;;;;;;5049883;23;20239;-81
2022/08/19 20:45:35;;;;;;;12.20;10.90;;;22.80;99.90;;;;;;5010131;28;20531;-81
2022/08/19 20:48:19;;;;;;;13.23;12.02;;;22.80;99.90;;;;;;5010130;28;20433;-81
2022/08/19 20:51:05;;;;;;;13.13;11.82;;;22.70;99.90;;;;;;5010085;28;20511;-81
2022/08/19 20:54:05;;;;;;;13.63;12.27;;;22.70;99.90;;;;;;5103528;23;20459;-81
2022/08/19 20:57:07;;;;;;;13.33;12.03;;;22.70;99.90;;;;;;4967298;28;20439;-79
2022/08/19 21:00:04;;;;;;;12.90;11.55;;;22.70;99.90;;;;;;4982483;28;20486;-79
2022/08/19 21:02:49;;;;;;;13.90;12.40;;;22.70;99.90;;;;;;4977473;28;20449;-79
2022/08/19 21:05:35;;;;;;;14.10;12.65;;;22.70;99.90;;;;;;4947480;28;20414;-79
2022/08/19 21:08:24;;;;;;;14.90;13.43;;;22.70;99.90;;;;;;4948352;28;20437;-79
2022/08/19 21:11:13;;;;;;;14.57;12.95;;;22.70;99.90;;;;;;4948753;28;20785;-79
2022/08/19 21:14:08;;;;;;;14.32;12.80;;;22.60;99.90;;;;;;4953171;28;20459;-78
2022/08/19 21:16:55;;;;;;;15.35;13.88;;;22.60;99.90;;;;;;4949477;28;20434;-80
2022/08/19 21:19:40;;;;;;;14.85;13.35;;;22.60;99.90;;;;;;4946224;28;20512;-79
2022/08/19 21:22:31;;;;;;;15.95;13.98;;;22.60;99.90;;;;;;4949819;28;20413;-79
2022/08/19 21:25:18;;;;;;;15.05;13.52;;;22.60;99.90;;;;;;4949924;28;20477;-80
2022/08/19 21:28:03;;;;;;;16.20;13.88;;;22.60;99.90;;;;;;4950152;28;20492;-79
2022/08/19 21:30:51;;;;;;;15.20;13.70;;;22.50;99.90;;;;;;4948305;28;20848;-79
2022/08/19 21:33:42;;;;;;;13.75;12.52;;;22.50;99.90;;;;;;4948387;28;20448;-79
2022/08/19 21:36:28;;;;;;;14.07;12.73;;;22.50;99.90;;;;;;4947502;28;20422;-78
2022/08/19 21:39:17;;;;;;;14.25;12.80;;;22.50;99.90;;;;;;4950100;28;20401;-79
2022/08/19 21:42:03;;;;;;;14.77;12.50;;;22.50;99.90;;;;;;4943891;28;20408;-79
2022/08/19 21:44:47;;;;;;;13.43;12.23;;;22.50;99.90;;;;;;4949782;28;20780;-79
2022/08/19 21:47:32;;;;;;;13.73;12.33;;;22.50;99.90;;;;;;4949169;28;20974;-79
2022/08/19 21:50:18;;;;;;;13.88;12.48;;;22.40;99.90;;;;;;4943846;28;20416;-79
2022/08/19 21:53:02;;;;;;;14.13;12.50;;;22.40;99.90;;;;;;4953492;28;20409;-79
2022/08/19 21:55:47;;;;;;;15.70;13.73;;;22.40;99.90;;;;;;4950209;28;20421;-78
2022/08/19 21:58:35;;;;;;;15.53;13.93;;;22.40;99.90;;;;;;4951057;28;20441;-78
2022/08/19 22:01:19;;;;;;;15.63;14.07;;;22.40;99.90;;;;;;4951025;28;20932;-78
2022/08/19 22:04:04;;;;;;;16.75;14.02;;;22.40;99.90;;;;;;4949262;28;20466;-78
2022/08/19 22:06:51;;;;;;;16.23;14.63;;;22.40;99.90;;;;;;4949347;28;20420;-79
2022/08/19 22:09:39;;;;;;;15.95;14.35;;;22.40;99.90;;;;;;4951740;28;20537;-78
2022/08/19 22:12:27;;;;;;;17.13;15.32;;;22.40;99.90;;;;;;4953362;28;20529;-78
2022/08/19 22:15:19;;;;;;;16.80;15.15;;;22.40;99.90;;;;;;4951984;28;20512;-79
2022/08/19 22:18:05;;;;;;;17.13;15.33;;;22.40;99.90;;;;;;4951526;28;20568;-79
2022/08/19 22:20:50;;;;;;;16.75;15.07;;;22.30;99.90;;;;;;4943934;28;20594;-79
2022/08/19 22:23:35;;;;;;;17.40;15.32;;;22.30;99.90;;;;;;4942406;28;20983;-79
2022/08/19 22:26:19;;;;;;;16.45;14.95;;;22.30;99.90;;;;;;4950548;28;20782;-79
2022/08/19 22:29:03;;;;;;;16.90;15.18;;;22.30;99.90;;;;;;4948377;28;20424;-79
2022/08/19 22:31:47;;;;;;;16.70;15.00;;;22.30;99.90;;;;;;4949275;28;20477;-77
2022/08/19 22:34:32;;;;;;;17.35;15.68;;;22.30;99.90;;;;;;4946737;28;20430;-76
2022/08/19 22:37:16;;;;;;;18.98;15.73;;;22.30;99.90;;;;;;4949269;28;20427;-77
2022/08/19 22:40:04;;;;;;;16.95;15.10;;;22.20;99.90;;;;;;4954358;28;20440;-77
2022/08/19 22:43:03;;;;;;;16.45;14.75;;;22.20;99.90;;;;;;4956894;28;20444;-80
2022/08/19 22:45:49;;;;;;;18.10;15.40;;;22.20;99.90;;;;;;4952273;28;21006;-79
2022/08/19 22:48:32;;;;;;;16.80;15.10;;;22.20;99.90;;;;;;4949190;28;20472;-78
2022/08/19 22:54:20;;;;;;;17.13;15.43;;;22.10;99.90;;;;;;4946048;28;20794;-78
2022/08/19 22:57:04;;;;;;;17.35;15.65;;;22.00;99.90;;;;;;4952362;28;20489;-79
2022/08/19 22:59:50;;;;;;;17.10;15.32;;;21.90;99.90;;;;;;4950410;28;20469;-78
2022/08/19 23:02:39;;;;;;;18.27;16.38;;;21.90;99.90;;;;;;4940050;28;20431;-78
2022/08/19 23:05:27;;;;;;;17.27;15.65;;;21.80;99.90;;;;;;4948323;28;20402;-78
2022/08/19 23:08:11;;;;;;;17.45;15.85;;;21.80;99.90;;;;;;4950632;28;20424;-78
2022/08/19 23:10:55;;;;;;;18.37;16.50;;;21.80;99.90;;;;;;4952135;28;20477;-78
2022/08/19 23:13:41;;;;;;;19.25;17.27;;;21.70;99.90;;;;;;4940954;28;21064;-78
2022/08/19 23:16:25;;;;;;;19.10;16.83;;;21.70;99.90;;;;;;4953094;28;20949;-79
2022/08/19 23:19:10;;;;;;;19.60;17.60;;;21.80;99.90;;;;;;4950151;28;20550;-77
2022/08/19 23:21:55;;;;;;;19.77;17.77;;;21.70;99.90;;;;;;4949929;28;20422;-77
2022/08/19 23:24:39;;;;;;;20.17;18.00;;;21.70;99.90;;;;;;4947833;28;20466;-77
2022/08/19 23:30:26;;;;;;;17.50;15.45;;;21.70;99.90;;;;;;4941932;28;20234;-77
2022/08/19 23:33:23;;;;;;;20.63;15.88;;;21.60;99.90;;;;;;4952834;28;20221;-77
2022/08/19 23:36:12;;;;;;;17.17;15.35;;;21.50;99.90;;;;;;4949836;28;20683;-77
2022/08/19 23:38:58;;;;;;;21.33;18.30;;;21.50;99.90;;;;;;4954703;28;21108;-77
2022/08/19 23:41:42;;;;;;;17.67;15.75;;;21.50;99.90;;;;;;4947430;28;20597;-77
2022/08/19 23:44:27;;;;;;;16.92;15.13;;;21.40;99.90;;;;;;4951872;28;20210;-77
2022/08/19 23:47:12;;;;;;;16.48;14.73;;;21.40;99.90;;;;;;4947934;28;20266;-78
2022/08/19 23:49:56;;;;;;;17.95;15.77;;;21.30;99.90;;;;;;4953663;28;20193;-76
2022/08/19 23:52:49;;;;;;;16.77;15.05;;;21.30;99.90;;;;;;4946222;28;20301;-77
2022/08/19 23:55:39;;;;;;;17.13;15.20;;;21.30;99.90;;;;;;4953743;28;20592;-77
2022/08/19 23:58:24;;;;;;;17.52;15.07;;;21.20;99.90;;;;;;4950189;28;20189;-78
